INFORMACIÓN METAR y TAF
METAR FOR GCRR
ADDS - METARS form results

(1244 UTC 18 January 2020)
Data provider http://aviationweather.gov/metar/data/
 
METAR text: GCRR 181230Z 08009KT CAVOK 19/15 Q1031
Conditions at: GCRR (ARRECIFE/LANZARO, ES) observed 1230 UTC 18 January 2020
Temperature: 19.0°C (66°F)
Dewpoint: 15.0°C (59°F) [RH = 78%]
Pressure (altimeter): 30.44 inches Hg (1031.0 mb)
Winds: from the E (80 degrees) at 10 MPH (9 knots; 4.6 m/s)
Visibility: 6 or more miles (10+ km)
Ceiling: ceiling and visibility are OK
Clouds: unknown
Weather: no significant weather observed at this time

METAR text: GCRR 181200Z 08008KT CAVOK 20/13 Q1031
Conditions at: GCRR (ARRECIFE/LANZARO, ES) observed 1200 UTC 18 January 2020
Temperature: 20.0°C (68°F)
Dewpoint: 13.0°C (55°F) [RH = 64%]
Pressure (altimeter): 30.44 inches Hg (1031.0 mb)
Winds: from the E (80 degrees) at 9 MPH (8 knots; 4.1 m/s)
Visibility: 6 or more miles (10+ km)
Ceiling: ceiling and visibility are OK
Clouds: unknown
Weather: no significant weather observed at this time

Forecast for: GCRR (ARRECIFE/LANZARO, ES)
Text: TAF GCRR 180800Z 1809/1909 02009KT CAVOK TX21/1815Z TN14/1906Z
Forecast period: 0900 UTC 18 January 2020 to 0900 UTC 19 January 2020
Forecast type: FROM: standard forecast or significant change
Winds: from the NNE (20 degrees) at 10 MPH (9 knots; 4.6 m/s)
Visibility: 6 or more miles 10+ km)
Ceiling: unknown
Clouds: missing
Weather: no significant weather forecast for this period
Text: BECMG 1809/1811 09010KT
Forecast period: 0900 to 1700 UTC 18 January 2020
Forecast type: BECOMING: Conditions expected to become as follows by 1100 UTC 18 January 2020
Winds: from the E (90 degrees) at 12 MPH (10 knots; 5.1 m/s)
Visibility: 6 or more miles 10+ km)
Ceiling: unknown
Clouds: missing
Weather: no significant weather forecast for this period
Text: BECMG 1817/1819 02010KT
Forecast period: 1700 UTC 18 January 2020 to 0900 UTC 19 January 2020
Forecast type: BECOMING: Conditions expected to become as follows by 1900 UTC 18 January 2020
Winds: from the NNE (20 degrees) at 12 MPH (10 knots; 5.1 m/s)
Visibility: 6 or more miles 10+ km)
Ceiling: unknown
Clouds: missing
Weather: no significant weather forecast for this period

MAPA DE AEROPUERTO

INFORMACIÓN DE PISTA
Pista 03 Longitud 7874 ft Ancho 148 ft
Elevación 18 ft Umbral desplazado 0 ft Rumbo de pista 27
Pista 21 Longitud 7874 ft Ancho 148 ft
Elevación 47 ft Umbral desplazado 0 ft Rumbo de pista 207

FRECUANCIAS DEL AEROPUERTO
Tipo APP Nombre CANARIAS A Frecuencia 129.3 MHZ
Tipo ATIS Nombre ATIS Frecuencia 118.625 MHZ
Tipo GND Nombre GND Frecuencia 121.8 MHZ
Tipo TWR Nombre TWR Frecuencia 120.7 MHZ

RADIO AYUDAS DEL AEROPUERTO
Tipo VOR-DME Nombre Lanzarote Frecuencia 113700 KHZ
Tipo NDB Nombre Lanzarote Frecuencia 310 KHZ
Tipo VOR-DME Nombre Lanzarote Frecuencia 115200 KHZ
Tipo TACAN Nombre Lanzarote Frecuencia 114700 KHZ